createdAt,value
2023-01-21T05:16:04.909Z,-3.49
2023-01-21T05:18:32.681Z,-3.53
2023-01-21T05:20:59.237Z,-3.62
2023-01-21T05:23:25.711Z,-3.66
2023-01-21T05:25:52.198Z,-3.74
2023-01-21T05:28:18.671Z,-3.72
2023-01-21T05:30:46.303Z,-3.72
2023-01-21T05:33:13.295Z,-3.78
2023-01-21T05:35:40.100Z,-3.84
2023-01-21T05:38:06.545Z,-3.76
2023-01-21T05:40:33.046Z,-3.83
2023-01-21T05:42:59.639Z,-3.85
2023-01-21T05:45:26.176Z,-3.73
2023-01-21T05:47:52.726Z,-3.70
2023-01-21T05:50:19.505Z,-3.68
2023-01-21T05:52:45.998Z,-3.74
2023-01-21T05:55:12.512Z,-3.81
2023-01-21T05:57:39.101Z,-3.72
2023-01-21T06:00:06.309Z,-3.95
2023-01-21T06:02:32.837Z,-3.85
2023-01-21T06:04:59.383Z,-3.97
2023-01-21T06:07:25.981Z,-4.00
2023-01-21T06:09:52.552Z,-3.96
2023-01-21T06:12:19.006Z,-3.89
2023-01-21T06:14:45.516Z,-3.93
2023-01-21T06:17:13.290Z,-3.93
2023-01-21T06:19:39.809Z,-3.89
2023-01-21T06:22:06.420Z,-3.96
2023-01-21T06:24:33.002Z,-3.81
2023-01-21T06:26:59.460Z,-3.73
2023-01-21T06:29:26.018Z,-3.77
2023-01-21T06:31:52.658Z,-3.90
2023-01-21T06:34:19.922Z,-3.83
2023-01-21T06:36:46.434Z,-3.91
2023-01-21T06:39:12.995Z,-4.00
2023-01-21T06:41:39.861Z,-3.93
2023-01-21T06:44:07.597Z,-4.01
2023-01-21T06:46:34.311Z,-4.00
2023-01-21T06:49:01.076Z,-4.09
2023-01-21T06:51:27.537Z,-3.98
2023-01-21T06:53:54.197Z,-3.99
2023-01-21T06:56:22.118Z,-3.93
2023-01-21T06:58:48.805Z,-3.89
2023-01-21T07:01:15.430Z,-4.00
2023-01-21T07:03:42.255Z,-4.09
2023-01-21T07:06:10.180Z,-4.05
2023-01-21T07:08:36.670Z,-4.04
2023-01-21T07:11:05.341Z,-3.85
2023-01-21T07:13:32.030Z,-3.89
2023-01-21T07:16:00.832Z,-3.98
2023-01-21T07:18:27.849Z,-4.05
2023-01-21T07:20:54.934Z,-3.94
2023-01-21T07:23:21.933Z,-3.93
2023-01-21T07:25:48.573Z,-3.83
2023-01-21T07:28:40.965Z,-3.76
2023-01-21T07:31:07.586Z,-3.76
2023-01-21T07:33:34.115Z,-3.64
2023-01-21T07:36:00.793Z,-3.59
2023-01-21T07:38:27.606Z,-3.62
2023-01-21T07:40:54.410Z,-3.41
2023-01-21T07:43:21.113Z,-3.37
2023-01-21T07:45:47.945Z,-3.35
2023-01-21T07:48:14.525Z,-3.24
2023-01-21T07:50:41.038Z,-3.19
2023-01-21T07:53:07.745Z,-3.28
2023-01-21T07:55:34.226Z,-2.94
2023-01-21T07:58:00.831Z,-2.94
2023-01-21T08:00:42.708Z,-2.90
2023-01-21T08:03:09.289Z,-2.89
2023-01-21T08:05:35.782Z,-3.18
2023-01-21T08:08:02.295Z,-3.13
2023-01-21T08:10:28.816Z,-3.28
2023-01-21T08:12:55.385Z,-3.36
2023-01-21T08:15:21.915Z,-3.24
2023-01-21T08:17:49.047Z,-3.22
2023-01-21T08:20:15.598Z,-3.25
2023-01-21T08:22:44.856Z,-3.18
2023-01-21T08:25:11.837Z,-3.24
2023-01-21T08:27:38.504Z,-3.19
2023-01-21T08:30:05.527Z,-3.31
2023-01-21T08:32:33.321Z,-3.26
2023-01-21T08:34:59.909Z,-3.28
2023-01-21T08:37:26.557Z,-3.33
2023-01-21T08:39:53.020Z,-3.39
2023-01-21T08:42:19.837Z,-3.30
2023-01-21T08:44:46.897Z,-3.23
2023-01-21T08:47:13.616Z,-3.33
2023-01-21T08:50:35.233Z,-3.31
2023-01-21T08:55:53.943Z,-3.28
2023-01-21T08:58:20.522Z,-3.23
2023-01-21T09:00:47.151Z,-3.19
2023-01-21T09:03:16.983Z,-2.88
2023-01-21T09:05:43.634Z,-3.04
2023-01-21T09:08:16.258Z,-2.90
2023-01-21T09:11:01.094Z,-3.02
2023-01-21T09:13:35.646Z,-2.88
2023-01-21T09:16:02.189Z,-2.67
2023-01-21T09:18:28.876Z,-2.86
2023-01-21T09:21:03.993Z,-2.93
2023-01-21T09:23:36.489Z,-2.88
2023-01-21T09:26:07.006Z,-2.89
2023-01-21T09:28:38.706Z,-2.67
2023-01-21T09:31:08.207Z,-2.93
2023-01-21T09:33:43.426Z,-2.85
2023-01-21T09:39:00.047Z,-2.67
2023-01-21T09:41:40.219Z,-2.42
2023-01-21T09:44:25.867Z,-2.33
2023-01-21T09:47:03.610Z,-2.30
2023-01-21T09:49:41.805Z,-2.44
2023-01-21T09:52:35.891Z,-2.43
2023-01-21T09:55:04.015Z,-2.46
2023-01-21T09:57:49.006Z,-2.46
2023-01-21T10:00:24.972Z,-2.19
2023-01-21T10:02:59.267Z,-2.17
2023-01-21T10:05:52.858Z,-2.08
2023-01-21T10:09:05.193Z,-1.99
2023-01-21T10:11:40.446Z,-2.24
2023-01-21T10:14:22.578Z,-1.93
2023-01-21T10:16:52.372Z,-1.71
2023-01-21T10:19:24.557Z,-1.24
2023-01-21T10:22:04.162Z,-1.29
2023-01-21T10:24:38.823Z,-1.33
2023-01-21T10:27:05.580Z,-1.31
2023-01-21T10:29:36.348Z,-1.22
2023-01-21T10:32:07.107Z,-1.14
2023-01-21T10:34:43.653Z,-0.91
2023-01-21T10:37:45.929Z,-1.14
2023-01-21T10:40:48.655Z,-0.95
2023-01-21T10:47:21.340Z,-0.91
2023-01-21T10:50:08.563Z,-0.95
2023-01-21T10:52:54.587Z,-1.18
2023-01-21T10:55:33.210Z,-1.66
2023-01-21T10:58:22.602Z,-1.59
2023-01-21T11:00:59.455Z,-1.62
2023-01-21T11:06:33.506Z,-1.48
2023-01-21T11:09:03.823Z,-1.48
2023-01-21T11:11:35.079Z,-1.56
2023-01-21T11:14:14.431Z,-1.35
2023-01-21T11:16:48.712Z,-1.17
2023-01-21T11:19:16.862Z,-1.19
2023-01-21T11:22:05.340Z,-1.26
2023-01-21T11:24:52.861Z,-1.42
2023-01-21T11:27:28.667Z,-1.24
2023-01-21T11:29:55.467Z,-1.38
2023-01-21T11:32:27.658Z,-0.97
2023-01-21T11:35:15.844Z,-1.35
2023-01-21T11:37:45.643Z,-1.67
2023-01-21T11:40:25.786Z,-1.56
2023-01-21T11:42:56.350Z,-1.53
2023-01-21T11:45:36.309Z,-1.58
2023-01-21T11:48:20.260Z,-1.46
2023-01-21T11:50:53.222Z,-1.47
2023-01-21T11:53:20.224Z,-1.47
2023-01-21T11:55:51.223Z,-1.57
2023-01-21T11:58:30.640Z,-1.49
2023-01-21T12:01:01.902Z,-1.33
2023-01-21T12:03:40.868Z,-1.50
2023-01-21T12:06:08.063Z,-1.46
2023-01-21T12:08:37.753Z,-1.42
2023-01-21T12:11:07.715Z,-1.56
2023-01-21T12:13:50.377Z,-1.41
2023-01-21T12:16:23.367Z,-1.32
2023-01-21T12:19:09.117Z,-1.33
2023-01-21T12:22:11.565Z,-0.91
2023-01-21T12:24:51.137Z,-0.92
2023-01-21T12:27:42.802Z,-1.08
2023-01-21T12:30:32.140Z,-1.11
2023-01-21T12:33:12.114Z,-1.28
2023-01-21T12:36:07.437Z,-1.11
2023-01-21T12:38:41.218Z,-1.26
2023-01-21T12:41:27.344Z,-0.97
2023-01-21T12:44:02.227Z,-1.25
2023-01-21T12:46:41.453Z,-1.09
2023-01-21T12:49:19.119Z,-1.27
2023-01-21T12:51:50.571Z,-1.04
2023-01-21T12:54:27.715Z,-1.18
2023-01-21T12:57:09.873Z,-1.05
2023-01-21T12:59:53.902Z,-1.24
2023-01-21T13:02:52.847Z,-1.25
2023-01-21T13:05:44.407Z,-1.10
2023-01-21T13:08:38.149Z,-1.09
2023-01-21T13:11:30.659Z,-0.73
2023-01-21T13:14:04.625Z,0.12
2023-01-21T13:16:33.464Z,0.48
2023-01-21T13:19:00.726Z,0.85
2023-01-21T13:21:49.451Z,1.73
2023-01-21T13:24:29.685Z,2.58
2023-01-21T13:27:44.745Z,1.55
2023-01-21T13:30:43.751Z,1.74
2023-01-21T13:33:31.345Z,2.61
2023-01-21T13:36:32.887Z,1.80
2023-01-21T13:39:12.096Z,2.22
2023-01-21T13:41:59.985Z,3.19
2023-01-21T13:44:54.834Z,3.75
2023-01-21T13:47:37.012Z,4.52
2023-01-21T13:50:21.773Z,5.79
2023-01-21T13:53:00.430Z,5.88
2023-01-21T13:55:36.249Z,4.37
2023-01-21T13:58:15.841Z,4.96
2023-01-21T14:01:05.914Z,4.74
2023-01-21T14:03:45.144Z,5.96
2023-01-21T14:06:49.658Z,7.12
2023-01-21T14:09:27.474Z,6.27
2023-01-21T14:12:01.949Z,4.91
2023-01-21T14:14:47.023Z,2.99
2023-01-21T14:17:23.596Z,2.79
2023-01-21T14:20:25.683Z,1.35
2023-01-21T14:23:15.308Z,1.00
2023-01-21T14:25:41.796Z,0.66
2023-01-21T14:28:29.689Z,0.38
2023-01-21T14:31:06.905Z,0.46
2023-01-21T14:34:06.013Z,0.09
2023-01-21T14:36:59.676Z,0.03
2023-01-21T14:39:26.154Z,-0.12
2023-01-21T14:42:05.110Z,-0.45
2023-01-21T14:44:42.690Z,-0.54
2023-01-21T14:47:14.722Z,-0.27
2023-01-21T14:49:47.560Z,0.07
2023-01-21T14:52:27.896Z,-0.07
2023-01-21T14:54:54.771Z,-0.14
2023-01-21T14:57:26.568Z,-0.37
2023-01-21T15:00:01.267Z,-0.46
2023-01-21T15:02:34.246Z,-0.37
2023-01-21T15:05:10.054Z,-0.52
2023-01-21T15:07:43.220Z,-0.83
2023-01-21T15:10:20.012Z,-0.72
2023-01-21T15:12:53.862Z,-0.53
2023-01-21T15:15:36.985Z,-0.50
2023-01-21T15:18:09.685Z,-0.45
2023-01-21T15:20:42.221Z,-0.65
2023-01-21T15:23:17.953Z,-0.67
2023-01-21T15:26:11.147Z,-0.77
2023-01-21T15:28:48.765Z,-1.06
2023-01-21T15:31:21.592Z,-0.92
2023-01-21T15:33:49.731Z,-0.89
2023-01-21T15:36:26.912Z,-1.03
2023-01-21T15:39:00.751Z,-1.16
2023-01-21T15:41:48.449Z,-1.07
2023-01-21T15:44:27.942Z,-1.17
2023-01-21T15:46:54.448Z,-0.99
2023-01-21T15:49:43.537Z,-0.95
2023-01-21T15:53:04.320Z,-1.12
2023-01-21T15:55:47.762Z,-1.32
2023-01-21T15:58:29.629Z,-1.34
2023-01-21T16:01:07.654Z,-1.21
2023-01-21T16:03:55.038Z,-1.29
2023-01-21T16:06:40.309Z,-1.44
2023-01-21T16:09:09.201Z,-1.28
2023-01-21T16:12:04.132Z,-1.46
2023-01-21T16:15:05.899Z,-1.38
2023-01-21T16:17:44.623Z,-1.33
2023-01-21T16:20:23.231Z,-1.32
2023-01-21T16:22:53.835Z,-1.56
2023-01-21T16:25:24.945Z,-1.51
2023-01-21T16:27:54.034Z,-1.53
2023-01-21T16:30:37.541Z,-1.60
2023-01-21T16:33:13.551Z,-1.60
2023-01-21T16:35:46.556Z,-1.44
2023-01-21T16:38:24.828Z,-1.69
2023-01-21T16:41:15.607Z,-1.49
2023-01-21T16:43:54.102Z,-1.45
2023-01-21T16:46:25.506Z,-1.40
2023-01-21T16:48:57.258Z,-1.45
2023-01-21T16:51:29.554Z,-1.30
2023-01-21T16:54:24.257Z,-1.21
2023-01-21T16:57:00.785Z,-1.19
2023-01-21T16:59:44.910Z,-1.23
2023-01-21T17:02:22.618Z,-1.48
2023-01-21T17:04:49.550Z,-1.46
2023-01-21T17:07:30.413Z,-1.51
2023-01-21T17:10:08.011Z,-1.43
2023-01-21T17:12:36.435Z,-1.37
2023-01-21T17:15:16.492Z,-1.45
2023-01-21T17:17:46.015Z,-1.42
2023-01-21T17:20:34.359Z,-1.66
2023-01-21T17:23:16.681Z,-1.56
2023-01-21T17:25:43.861Z,-1.59
2023-01-21T17:28:28.691Z,-1.57
2023-01-21T17:31:14.072Z,-1.37
2023-01-21T17:33:41.403Z,-1.89
2023-01-21T17:36:11.894Z,-1.61
2023-01-21T17:38:40.979Z,-1.64
2023-01-21T17:41:09.707Z,-1.58
2023-01-21T17:43:39.179Z,-1.55
2023-01-21T17:46:06.646Z,-1.37
2023-01-21T17:48:39.443Z,-1.30
2023-01-21T17:51:09.760Z,-1.34
2023-01-21T17:53:55.796Z,-1.54
2023-01-21T17:56:50.500Z,-1.51
2023-01-21T17:59:55.884Z,-1.60
2023-01-21T18:02:24.416Z,-1.43
2023-01-21T18:04:51.139Z,-1.29
2023-01-21T18:07:20.646Z,-1.55
2023-01-21T18:10:05.331Z,-1.48
2023-01-21T18:12:38.035Z,-1.57
2023-01-21T18:15:36.349Z,-1.64
2023-01-21T18:18:04.067Z,-1.43
2023-01-21T18:20:30.849Z,-1.69
2023-01-21T18:23:16.415Z,-1.67
2023-01-21T18:26:50.404Z,-1.53
2023-01-21T18:29:30.738Z,-1.54
2023-01-21T18:31:58.532Z,-1.48
2023-01-21T18:34:25.545Z,-1.47
2023-01-21T18:36:52.113Z,-1.50
2023-01-21T18:39:19.919Z,-1.61
2023-01-21T18:41:46.726Z,-1.37
2023-01-21T18:44:14.051Z,-1.26
2023-01-21T18:46:43.673Z,-1.38
2023-01-21T18:49:19.002Z,-1.50
2023-01-21T18:51:46.751Z,-1.40
2023-01-21T18:54:14.391Z,-1.21
2023-01-21T18:56:42.435Z,-1.19
2023-01-21T18:59:15.220Z,-1.25
2023-01-21T19:01:46.284Z,-1.19
2023-01-21T19:04:18.932Z,-1.45
2023-01-21T19:06:50.500Z,-1.41
2023-01-21T19:09:20.865Z,-1.45
2023-01-21T19:11:48.051Z,-1.16
2023-01-21T19:14:14.751Z,-1.03
2023-01-21T19:16:42.739Z,-1.20
2023-01-21T19:19:19.015Z,-1.42
2023-01-21T19:21:46.284Z,-1.07
2023-01-21T19:24:12.752Z,-0.89
2023-01-21T19:26:39.495Z,-1.10
2023-01-21T19:29:13.473Z,-1.27
2023-01-21T19:31:40.137Z,-1.49
2023-01-21T19:34:06.678Z,-1.38
2023-01-21T19:36:33.117Z,-1.24
2023-01-21T19:39:01.389Z,-1.50
2023-01-21T19:41:27.978Z,-1.27
2023-01-21T19:43:54.527Z,-1.19
2023-01-21T19:46:23.810Z,-1.29
2023-01-21T19:48:53.342Z,-1.04
2023-01-21T19:51:19.953Z,-1.22
2023-01-21T19:53:46.518Z,-1.24
2023-01-21T19:56:16.782Z,-1.31
2023-01-21T19:58:46.884Z,-1.11
2023-01-21T20:01:16.057Z,-1.18
2023-01-21T20:03:54.583Z,-1.07
2023-01-21T20:06:26.779Z,-1.10
2023-01-21T20:08:53.663Z,-0.96
2023-01-21T20:11:20.491Z,-1.05
2023-01-21T20:13:47.259Z,-1.06
2023-01-21T20:16:20.999Z,-0.80
2023-01-21T20:18:49.430Z,-0.77
2023-01-21T20:21:16.157Z,-0.63
2023-01-21T20:23:42.734Z,-0.59
2023-01-21T20:26:16.520Z,-0.60
2023-01-21T20:28:47.802Z,-0.54
2023-01-21T20:31:14.577Z,-0.57
2023-01-21T20:33:43.816Z,-0.45
2023-01-21T20:36:19.175Z,-0.76
2023-01-21T20:38:45.970Z,-0.65
2023-01-21T20:41:14.329Z,-0.57
2023-01-21T20:43:52.335Z,-0.54
2023-01-21T20:46:29.845Z,-0.76
2023-01-21T20:48:57.705Z,-0.63
2023-01-21T20:51:25.355Z,-0.61
2023-01-21T20:53:52.101Z,-0.86
2023-01-21T20:56:26.638Z,-0.95
2023-01-21T20:59:02.550Z,-0.80
2023-01-21T21:01:34.953Z,-0.90
2023-01-21T21:04:01.825Z,-1.06
2023-01-21T21:06:31.145Z,-0.81
2023-01-21T21:08:57.942Z,-0.91
2023-01-21T21:11:24.738Z,-0.71
2023-01-21T21:13:52.421Z,-0.79
2023-01-21T21:16:27.613Z,-1.00
2023-01-21T21:18:54.290Z,-0.97
2023-01-21T21:21:23.584Z,-0.94
2023-01-21T21:23:51.621Z,-0.83
2023-01-21T21:26:26.603Z,-0.87
2023-01-21T21:28:55.005Z,-0.85
2023-01-21T21:31:22.410Z,-0.93
2023-01-21T21:33:49.215Z,-0.88
2023-01-21T21:36:20.864Z,-0.93
2023-01-21T21:38:48.229Z,-0.81
2023-01-21T21:41:35.873Z,-0.99
2023-01-21T21:44:02.998Z,-0.93
2023-01-21T21:46:50.248Z,-1.17
2023-01-21T21:49:16.799Z,-0.92
2023-01-21T21:51:45.615Z,-0.85
2023-01-21T21:54:14.957Z,-0.67
2023-01-21T21:56:42.469Z,-0.88
2023-01-21T21:59:09.023Z,-0.89
2023-01-21T22:01:35.997Z,-0.91
2023-01-21T22:04:03.600Z,-0.92
2023-01-21T22:06:31.050Z,-0.94
2023-01-21T22:09:00.977Z,-1.26
2023-01-21T22:11:28.558Z,-0.90
2023-01-21T22:13:56.167Z,-0.93
2023-01-21T22:16:25.944Z,-0.96
2023-01-21T22:18:52.674Z,-0.85
2023-01-21T22:21:21.679Z,-0.64
2023-01-21T22:23:49.321Z,-0.75
2023-01-21T22:26:18.817Z,-0.68
2023-01-21T22:28:45.784Z,-0.58
2023-01-21T22:31:32.312Z,-0.55
2023-01-21T22:33:59.645Z,-0.54
2023-01-21T22:36:29.648Z,-0.79
2023-01-21T22:38:56.264Z,-0.51
2023-01-21T22:41:24.133Z,-1.09
2023-01-21T22:43:51.400Z,-0.94
2023-01-21T22:46:24.089Z,-0.93
2023-01-21T22:48:51.372Z,-0.68
2023-01-21T22:51:19.518Z,-0.86
2023-01-21T22:53:46.151Z,-0.99
2023-01-21T22:56:15.110Z,-0.93
2023-01-21T22:58:42.531Z,-0.95
